sensor_id;sensor_type;location;lat;lon;timestamp;temperature;humidity
5899;DHT22;2975;50.956;6.962;2023-07-22T00:00:26;14.40;99.90
5899;DHT22;2975;50.956;6.962;2023-07-22T00:02:52;14.40;99.90
5899;DHT22;2975;50.956;6.962;2023-07-22T00:05:17;14.30;99.90
5899;DHT22;2975;50.956;6.962;2023-07-22T00:07:49;14.30;99.90
5899;DHT22;2975;50.956;6.962;2023-07-22T00:10:15;14.40;99.90
5899;DHT22;2975;50.956;6.962;2023-07-22T00:12:41;14.40;99.90
5899;DHT22;2975;50.956;6.962;2023-07-22T00:15:07;14.40;99.90
5899;DHT22;2975;50.956;6.962;2023-07-22T00:17:33;14.40;99.90
5899;DHT22;2975;50.956;6.962;2023-07-22T00:19:59;14.30;99.90
5899;DHT22;2975;50.956;6.962;2023-07-22T00:22:25;14.30;99.90
5899;DHT22;2975;50.956;6.962;2023-07-22T00:24:52;14.30;99.90
5899;DHT22;2975;50.956;6.962;2023-07-22T00:27:18;14.30;99.90
5899;DHT22;2975;50.956;6.962;2023-07-22T00:29:43;14.30;99.90
5899;DHT22;2975;50.956;6.962;2023-07-22T00:32:09;14.30;99.90
5899;DHT22;2975;50.956;6.962;2023-07-22T00:34:35;14.30;99.90
5899;DHT22;2975;50.956;6.962;2023-07-22T00:37:02;14.30;99.90
5899;DHT22;2975;50.956;6.962;2023-07-22T00:39:28;14.30;99.90
5899;DHT22;2975;50.956;6.962;2023-07-22T00:41:53;14.30;99.90
5899;DHT22;2975;50.956;6.962;2023-07-22T00:44:19;14.30;99.90
5899;DHT22;2975;50.956;6.962;2023-07-22T00:46:44;14.30;99.90
5899;DHT22;2975;50.956;6.962;2023-07-22T00:49:12;14.30;99.90
5899;DHT22;2975;50.956;6.962;2023-07-22T00:51:39;14.30;99.90
5899;DHT22;2975;50.956;6.962;2023-07-22T00:54:05;14.30;99.90
5899;DHT22;2975;50.956;6.962;2023-07-22T00:56:36;14.30;99.90
5899;DHT22;2975;50.956;6.962;2023-07-22T00:59:02;14.30;99.90
5899;DHT22;2975;50.956;6.962;2023-07-22T01:01:27;14.30;99.90
5899;DHT22;2975;50.956;6.962;2023-07-22T01:03:54;14.20;99.90
5899;DHT22;2975;50.956;6.962;2023-07-22T01:06:20;14.20;99.90
5899;DHT22;2975;50.956;6.962;2023-07-22T01:08:45;14.20;99.90
5899;DHT22;2975;50.956;6.962;2023-07-22T01:11:12;14.20;99.90
5899;DHT22;2975;50.956;6.962;2023-07-22T01:13:38;14.20;99.90
5899;DHT22;2975;50.956;6.962;2023-07-22T01:16:05;14.20;99.90
5899;DHT22;2975;50.956;6.962;2023-07-22T01:18:33;14.20;99.90
5899;DHT22;2975;50.956;6.962;2023-07-22T01:20:59;14.20;99.90
5899;DHT22;2975;50.956;6.962;2023-07-22T01:23:24;14.30;99.90
5899;DHT22;2975;50.956;6.962;2023-07-22T01:25:50;14.30;99.90
5899;DHT22;2975;50.956;6.962;2023-07-22T01:28:17;14.40;99.90
5899;DHT22;2975;50.956;6.962;2023-07-22T01:30:42;14.30;99.90
5899;DHT22;2975;50.956;6.962;2023-07-22T01:33:08;14.30;99.90
5899;DHT22;2975;50.956;6.962;2023-07-22T01:35:33;14.20;99.90
5899;DHT22;2975;50.956;6.962;2023-07-22T01:37:59;14.20;99.90
5899;DHT22;2975;50.956;6.962;2023-07-22T01:40:26;14.10;99.90
5899;DHT22;2975;50.956;6.962;2023-07-22T01:42:51;14.10;99.90
5899;DHT22;2975;50.956;6.962;2023-07-22T01:45:17;14.10;99.90
5899;DHT22;2975;50.956;6.962;2023-07-22T01:47:43;14.10;99.90
5899;DHT22;2975;50.956;6.962;2023-07-22T01:50:08;14.20;99.90
5899;DHT22;2975;50.956;6.962;2023-07-22T01:52:35;14.30;99.90
5899;DHT22;2975;50.956;6.962;2023-07-22T01:55:01;14.40;99.90
5899;DHT22;2975;50.956;6.962;2023-07-22T01:57:26;14.60;99.90
5899;DHT22;2975;50.956;6.962;2023-07-22T01:59:52;14.80;99.90
5899;DHT22;2975;50.956;6.962;2023-07-22T02:02:19;15.00;99.90
5899;DHT22;2975;50.956;6.962;2023-07-22T02:04:45;15.20;99.90
5899;DHT22;2975;50.956;6.962;2023-07-22T02:07:11;15.40;99.90
5899;DHT22;2975;50.956;6.962;2023-07-22T02:09:36;15.40;99.90
5899;DHT22;2975;50.956;6.962;2023-07-22T02:12:02;15.50;99.90
5899;DHT22;2975;50.956;6.962;2023-07-22T02:14:28;15.50;99.90
5899;DHT22;2975;50.956;6.962;2023-07-22T02:16:53;15.40;99.90
5899;DHT22;2975;50.956;6.962;2023-07-22T02:19:19;15.40;99.90
5899;DHT22;2975;50.956;6.962;2023-07-22T02:21:44;15.40;99.90
5899;DHT22;2975;50.956;6.962;2023-07-22T02:24:10;15.40;99.90
5899;DHT22;2975;50.956;6.962;2023-07-22T02:26:36;15.30;99.90
5899;DHT22;2975;50.956;6.962;2023-07-22T02:29:02;15.20;99.90
5899;DHT22;2975;50.956;6.962;2023-07-22T02:31:27;15.20;99.90
5899;DHT22;2975;50.956;6.962;2023-07-22T02:33:53;15.10;99.90
5899;DHT22;2975;50.956;6.962;2023-07-22T02:36:19;14.90;99.90
5899;DHT22;2975;50.956;6.962;2023-07-22T02:38:44;14.90;99.90
5899;DHT22;2975;50.956;6.962;2023-07-22T02:41:10;14.80;99.90
5899;DHT22;2975;50.956;6.962;2023-07-22T02:43:36;14.70;99.90
5899;DHT22;2975;50.956;6.962;2023-07-22T02:46:04;14.70;99.90
5899;DHT22;2975;50.956;6.962;2023-07-22T02:48:30;14.70;99.90
5899;DHT22;2975;50.956;6.962;2023-07-22T02:51:08;14.70;99.90
5899;DHT22;2975;50.956;6.962;2023-07-22T02:53:35;14.60;99.90
5899;DHT22;2975;50.956;6.962;2023-07-22T02:56:02;14.70;99.90
5899;DHT22;2975;50.956;6.962;2023-07-22T02:58:28;14.70;99.90
5899;DHT22;2975;50.956;6.962;2023-07-22T03:00:54;14.80;99.90
5899;DHT22;2975;50.956;6.962;2023-07-22T03:03:19;14.80;99.90
5899;DHT22;2975;50.956;6.962;2023-07-22T03:05:45;14.80;99.90
5899;DHT22;2975;50.956;6.962;2023-07-22T03:08:11;14.90;99.90
5899;DHT22;2975;50.956;6.962;2023-07-22T03:10:36;15.00;99.90
5899;DHT22;2975;50.956;6.962;2023-07-22T03:13:02;15.00;99.90
5899;DHT22;2975;50.956;6.962;2023-07-22T03:15:28;15.10;99.90
5899;DHT22;2975;50.956;6.962;2023-07-22T03:17:55;15.20;99.90
5899;DHT22;2975;50.956;6.962;2023-07-22T03:20:25;15.30;99.90
5899;DHT22;2975;50.956;6.962;2023-07-22T03:22:51;15.40;99.90
5899;DHT22;2975;50.956;6.962;2023-07-22T03:25:17;15.30;99.90
5899;DHT22;2975;50.956;6.962;2023-07-22T03:27:43;15.20;99.90
5899;DHT22;2975;50.956;6.962;2023-07-22T03:30:15;15.20;99.90
5899;DHT22;2975;50.956;6.962;2023-07-22T03:32:42;15.20;99.90
5899;DHT22;2975;50.956;6.962;2023-07-22T03:35:09;15.20;99.90
5899;DHT22;2975;50.956;6.962;2023-07-22T03:37:36;15.10;99.90
5899;DHT22;2975;50.956;6.962;2023-07-22T03:40:03;15.10;99.90
5899;DHT22;2975;50.956;6.962;2023-07-22T03:42:32;15.00;99.90
5899;DHT22;2975;50.956;6.962;2023-07-22T03:44:58;15.00;99.90
5899;DHT22;2975;50.956;6.962;2023-07-22T03:47:23;14.90;99.90
5899;DHT22;2975;50.956;6.962;2023-07-22T03:49:49;14.90;99.90
5899;DHT22;2975;50.956;6.962;2023-07-22T03:52:15;14.90;99.90
5899;DHT22;2975;50.956;6.962;2023-07-22T03:54:44;14.90;99.90
5899;DHT22;2975;50.956;6.962;2023-07-22T03:57:09;14.90;99.90
5899;DHT22;2975;50.956;6.962;2023-07-22T03:59:35;14.90;99.90
5899;DHT22;2975;50.956;6.962;2023-07-22T04:02:01;14.90;99.90
5899;DHT22;2975;50.956;6.962;2023-07-22T04:04:26;14.90;99.90
5899;DHT22;2975;50.956;6.962;2023-07-22T04:06:52;14.80;99.90
5899;DHT22;2975;50.956;6.962;2023-07-22T04:09:18;14.80;99.90
5899;DHT22;2975;50.956;6.962;2023-07-22T04:11:43;14.80;99.90
5899;DHT22;2975;50.956;6.962;2023-07-22T04:14:09;14.90;99.90
5899;DHT22;2975;50.956;6.962;2023-07-22T04:16:34;14.80;99.90
5899;DHT22;2975;50.956;6.962;2023-07-22T04:19:00;14.90;99.90
5899;DHT22;2975;50.956;6.962;2023-07-22T04:21:26;14.90;99.90
5899;DHT22;2975;50.956;6.962;2023-07-22T04:23:52;15.00;99.90
5899;DHT22;2975;50.956;6.962;2023-07-22T04:26:19;15.10;99.90
5899;DHT22;2975;50.956;6.962;2023-07-22T04:28:44;15.10;99.90
5899;DHT22;2975;50.956;6.962;2023-07-22T04:31:10;15.20;99.90
5899;DHT22;2975;50.956;6.962;2023-07-22T04:33:35;15.40;99.90
5899;DHT22;2975;50.956;6.962;2023-07-22T04:36:01;15.50;99.90
5899;DHT22;2975;50.956;6.962;2023-07-22T04:38:27;15.60;99.90
5899;DHT22;2975;50.956;6.962;2023-07-22T04:40:53;15.80;99.90
5899;DHT22;2975;50.956;6.962;2023-07-22T04:43:19;15.90;99.90
5899;DHT22;2975;50.956;6.962;2023-07-22T04:45:45;16.00;99.90
5899;DHT22;2975;50.956;6.962;2023-07-22T04:48:19;16.10;99.90
5899;DHT22;2975;50.956;6.962;2023-07-22T04:50:44;16.20;99.90
5899;DHT22;2975;50.956;6.962;2023-07-22T04:53:11;16.20;99.90
5899;DHT22;2975;50.956;6.962;2023-07-22T04:55:39;16.30;99.90
5899;DHT22;2975;50.956;6.962;2023-07-22T04:58:04;16.30;99.90
5899;DHT22;2975;50.956;6.962;2023-07-22T05:00:30;16.40;99.90
5899;DHT22;2975;50.956;6.962;2023-07-22T05:02:56;16.40;99.90
5899;DHT22;2975;50.956;6.962;2023-07-22T05:05:21;16.50;99.90
5899;DHT22;2975;50.956;6.962;2023-07-22T05:07:47;16.70;99.90
5899;DHT22;2975;50.956;6.962;2023-07-22T05:10:15;17.40;99.90
5899;DHT22;2975;50.956;6.962;2023-07-22T05:12:42;18.20;99.30
5899;DHT22;2975;50.956;6.962;2023-07-22T05:15:09;19.20;98.30
5899;DHT22;2975;50.956;6.962;2023-07-22T05:17:35;20.30;97.00
5899;DHT22;2975;50.956;6.962;2023-07-22T05:20:02;21.80;94.20
5899;DHT22;2975;50.956;6.962;2023-07-22T05:22:31;22.80;92.50
5899;DHT22;2975;50.956;6.962;2023-07-22T05:24:57;23.50;91.10
5899;DHT22;2975;50.956;6.962;2023-07-22T05:27:24;24.50;90.10
5899;DHT22;2975;50.956;6.962;2023-07-22T05:29:49;24.80;83.60
5899;DHT22;2975;50.956;6.962;2023-07-22T05:32:15;23.90;82.90
5899;DHT22;2975;50.956;6.962;2023-07-22T05:34:40;23.20;84.70
5899;DHT22;2975;50.956;6.962;2023-07-22T05:37:06;23.40;86.40
5899;DHT22;2975;50.956;6.962;2023-07-22T05:39:31;24.30;84.50
5899;DHT22;2975;50.956;6.962;2023-07-22T05:41:57;25.20;81.70
5899;DHT22;2975;50.956;6.962;2023-07-22T05:44:23;26.10;79.30
5899;DHT22;2975;50.956;6.962;2023-07-22T05:46:48;27.40;75.30
5899;DHT22;2975;50.956;6.962;2023-07-22T05:49:14;27.50;72.30
5899;DHT22;2975;50.956;6.962;2023-07-22T05:51:40;28.00;71.80
5899;DHT22;2975;50.956;6.962;2023-07-22T05:54:05;28.60;69.40
5899;DHT22;2975;50.956;6.962;2023-07-22T05:56:31;29.80;67.60
5899;DHT22;2975;50.956;6.962;2023-07-22T05:58:57;30.40;64.90
5899;DHT22;2975;50.956;6.962;2023-07-22T06:01:24;31.50;61.20
5899;DHT22;2975;50.956;6.962;2023-07-22T06:03:50;32.40;57.60
5899;DHT22;2975;50.956;6.962;2023-07-22T06:06:15;32.50;55.70
5899;DHT22;2975;50.956;6.962;2023-07-22T06:08:41;31.60;54.40
5899;DHT22;2975;50.956;6.962;2023-07-22T06:11:07;30.60;55.40
5899;DHT22;2975;50.956;6.962;2023-07-22T06:13:32;29.80;55.50
5899;DHT22;2975;50.956;6.962;2023-07-22T06:15:58;29.70;56.40
5899;DHT22;2975;50.956;6.962;2023-07-22T06:18:23;29.10;56.50
5899;DHT22;2975;50.956;6.962;2023-07-22T06:20:49;28.00;58.50
5899;DHT22;2975;50.956;6.962;2023-07-22T06:23:15;28.30;59.90
5899;DHT22;2975;50.956;6.962;2023-07-22T06:25:41;28.80;57.70
5899;DHT22;2975;50.956;6.962;2023-07-22T06:28:06;28.40;57.70
5899;DHT22;2975;50.956;6.962;2023-07-22T06:30:32;28.00;58.20
5899;DHT22;2975;50.956;6.962;2023-07-22T06:32:58;28.10;59.00
5899;DHT22;2975;50.956;6.962;2023-07-22T06:35:23;28.80;59.50
5899;DHT22;2975;50.956;6.962;2023-07-22T06:37:49;29.50;57.60
5899;DHT22;2975;50.956;6.962;2023-07-22T06:40:14;30.10;58.20
5899;DHT22;2975;50.956;6.962;2023-07-22T06:42:40;29.50;57.60
5899;DHT22;2975;50.956;6.962;2023-07-22T06:45:06;28.60;58.20
5899;DHT22;2975;50.956;6.962;2023-07-22T06:47:32;27.60;60.10
5899;DHT22;2975;50.956;6.962;2023-07-22T06:49:57;26.30;62.30
5899;DHT22;2975;50.956;6.962;2023-07-22T06:52:23;25.20;64.90
5899;DHT22;2975;50.956;6.962;2023-07-22T06:54:49;24.30;66.60
5899;DHT22;2975;50.956;6.962;2023-07-22T06:57:15;24.00;67.10
5899;DHT22;2975;50.956;6.962;2023-07-22T06:59:40;23.80;66.90
5899;DHT22;2975;50.956;6.962;2023-07-22T07:02:06;23.50;67.20
5899;DHT22;2975;50.956;6.962;2023-07-22T07:04:32;23.30;67.00
5899;DHT22;2975;50.956;6.962;2023-07-22T07:06:58;23.10;65.50
5899;DHT22;2975;50.956;6.962;2023-07-22T07:09:24;23.00;66.60
5899;DHT22;2975;50.956;6.962;2023-07-22T07:11:50;22.90;66.60
5899;DHT22;2975;50.956;6.962;2023-07-22T07:14:17;22.70;66.50
5899;DHT22;2975;50.956;6.962;2023-07-22T07:16:43;22.60;67.40
5899;DHT22;2975;50.956;6.962;2023-07-22T07:19:09;22.40;67.40
5899;DHT22;2975;50.956;6.962;2023-07-22T07:21:34;22.10;67.60
5899;DHT22;2975;50.956;6.962;2023-07-22T07:24:00;22.00;67.90
5899;DHT22;2975;50.956;6.962;2023-07-22T07:26:25;22.10;67.60
5899;DHT22;2975;50.956;6.962;2023-07-22T07:28:52;22.00;67.90
5899;DHT22;2975;50.956;6.962;2023-07-22T07:31:18;21.80;68.50
5899;DHT22;2975;50.956;6.962;2023-07-22T07:33:43;21.70;68.80
5899;DHT22;2975;50.956;6.962;2023-07-22T07:36:09;21.60;68.70
5899;DHT22;2975;50.956;6.962;2023-07-22T07:38:35;21.60;68.80
5899;DHT22;2975;50.956;6.962;2023-07-22T07:41:05;21.60;69.60
5899;DHT22;2975;50.956;6.962;2023-07-22T07:43:34;21.70;69.70
5899;DHT22;2975;50.956;6.962;2023-07-22T07:46:32;21.80;69.60
5899;DHT22;2975;50.956;6.962;2023-07-22T07:48:59;21.90;69.50
5899;DHT22;2975;50.956;6.962;2023-07-22T07:51:27;21.90;69.00
5899;DHT22;2975;50.956;6.962;2023-07-22T07:53:53;22.10;69.30
5899;DHT22;2975;50.956;6.962;2023-07-22T07:56:19;22.20;69.10
5899;DHT22;2975;50.956;6.962;2023-07-22T07:58:46;22.40;67.90
5899;DHT22;2975;50.956;6.962;2023-07-22T08:01:12;22.60;68.30
5899;DHT22;2975;50.956;6.962;2023-07-22T08:03:41;22.90;67.50
5899;DHT22;2975;50.956;6.962;2023-07-22T08:06:07;23.10;66.90
5899;DHT22;2975;50.956;6.962;2023-07-22T08:08:34;23.30;66.40
5899;DHT22;2975;50.956;6.962;2023-07-22T08:11:06;23.60;66.10
5899;DHT22;2975;50.956;6.962;2023-07-22T08:13:32;23.80;64.50
5899;DHT22;2975;50.956;6.962;2023-07-22T08:16:02;23.70;64.50
5899;DHT22;2975;50.956;6.962;2023-07-22T08:18:29;23.80;64.30
5899;DHT22;2975;50.956;6.962;2023-07-22T08:20:55;24.00;64.10
5899;DHT22;2975;50.956;6.962;2023-07-22T08:23:21;24.20;63.70
5899;DHT22;2975;50.956;6.962;2023-07-22T08:25:48;24.30;63.30
5899;DHT22;2975;50.956;6.962;2023-07-22T08:28:14;24.00;62.50
5899;DHT22;2975;50.956;6.962;2023-07-22T08:30:39;23.70;62.80
5899;DHT22;2975;50.956;6.962;2023-07-22T08:33:06;23.60;64.00
5899;DHT22;2975;50.956;6.962;2023-07-22T08:35:34;23.40;66.00
5899;DHT22;2975;50.956;6.962;2023-07-22T08:38:00;23.00;66.70
5899;DHT22;2975;50.956;6.962;2023-07-22T08:40:27;22.90;64.90
5899;DHT22;2975;50.956;6.962;2023-07-22T08:42:57;23.00;65.60
5899;DHT22;2975;50.956;6.962;2023-07-22T08:45:26;23.00;65.30
5899;DHT22;2975;50.956;6.962;2023-07-22T08:47:57;23.00;65.70
5899;DHT22;2975;50.956;6.962;2023-07-22T08:50:29;22.90;64.80
5899;DHT22;2975;50.956;6.962;2023-07-22T08:52:55;22.80;65.10
5899;DHT22;2975;50.956;6.962;2023-07-22T08:55:20;22.80;65.50
5899;DHT22;2975;50.956;6.962;2023-07-22T08:57:48;22.90;65.40
5899;DHT22;2975;50.956;6.962;2023-07-22T09:00:14;22.90;65.30
5899;DHT22;2975;50.956;6.962;2023-07-22T09:02:41;22.90;64.80
5899;DHT22;2975;50.956;6.962;2023-07-22T09:05:07;22.80;64.10
5899;DHT22;2975;50.956;6.962;2023-07-22T09:07:35;22.90;64.40
5899;DHT22;2975;50.956;6.962;2023-07-22T09:10:00;23.00;64.00
5899;DHT22;2975;50.956;6.962;2023-07-22T09:12:28;22.80;65.20
5899;DHT22;2975;50.956;6.962;2023-07-22T09:14:54;23.00;65.10
5899;DHT22;2975;50.956;6.962;2023-07-22T09:17:19;23.00;64.80
5899;DHT22;2975;50.956;6.962;2023-07-22T09:19:45;23.10;64.20
5899;DHT22;2975;50.956;6.962;2023-07-22T09:22:10;23.20;63.90
5899;DHT22;2975;50.956;6.962;2023-07-22T09:24:36;23.20;64.20
5899;DHT22;2975;50.956;6.962;2023-07-22T09:27:01;23.50;63.50
5899;DHT22;2975;50.956;6.962;2023-07-22T09:29:37;23.90;62.90
5899;DHT22;2975;50.956;6.962;2023-07-22T09:32:03;24.10;62.30
5899;DHT22;2975;50.956;6.962;2023-07-22T09:34:29;24.20;61.80
5899;DHT22;2975;50.956;6.962;2023-07-22T09:36:57;24.50;61.80
5899;DHT22;2975;50.956;6.962;2023-07-22T09:39:24;24.60;61.60
5899;DHT22;2975;50.956;6.962;2023-07-22T09:41:50;24.70;61.30
5899;DHT22;2975;50.956;6.962;2023-07-22T09:44:18;24.70;60.60
5899;DHT22;2975;50.956;6.962;2023-07-22T09:46:47;25.00;60.40
5899;DHT22;2975;50.956;6.962;2023-07-22T09:49:13;24.90;59.70
5899;DHT22;2975;50.956;6.962;2023-07-22T09:51:39;25.30;58.40
5899;DHT22;2975;50.956;6.962;2023-07-22T09:54:06;25.20;58.60
5899;DHT22;2975;50.956;6.962;2023-07-22T09:56:42;25.10;58.90
5899;DHT22;2975;50.956;6.962;2023-07-22T09:59:10;25.00;59.00
5899;DHT22;2975;50.956;6.962;2023-07-22T10:01:38;25.00;59.10
5899;DHT22;2975;50.956;6.962;2023-07-22T10:04:05;24.90;59.30
5899;DHT22;2975;50.956;6.962;2023-07-22T10:06:31;24.80;58.70
5899;DHT22;2975;50.956;6.962;2023-07-22T10:09:02;24.80;58.30
5899;DHT22;2975;50.956;6.962;2023-07-22T10:11:30;24.70;56.90
5899;DHT22;2975;50.956;6.962;2023-07-22T10:13:58;24.50;52.20
5899;DHT22;2975;50.956;6.962;2023-07-22T10:16:24;24.50;52.00
5899;DHT22;2975;50.956;6.962;2023-07-22T10:18:50;24.50;52.10
5899;DHT22;2975;50.956;6.962;2023-07-22T10:21:17;24.50;53.00
5899;DHT22;2975;50.956;6.962;2023-07-22T10:23:44;24.60;52.90
5899;DHT22;2975;50.956;6.962;2023-07-22T10:26:11;24.70;53.00
5899;DHT22;2975;50.956;6.962;2023-07-22T10:28:40;24.90;52.90
5899;DHT22;2975;50.956;6.962;2023-07-22T10:31:06;25.00;52.20
5899;DHT22;2975;50.956;6.962;2023-07-22T10:33:32;24.80;53.00
5899;DHT22;2975;50.956;6.962;2023-07-22T10:38:32;25.20;52.00
5899;DHT22;2975;50.956;6.962;2023-07-22T10:40:59;24.80;51.30
5899;DHT22;2975;50.956;6.962;2023-07-22T10:43:29;24.90;52.40
5899;DHT22;2975;50.956;6.962;2023-07-22T10:46:04;24.70;52.30
5899;DHT22;2975;50.956;6.962;2023-07-22T10:48:35;24.80;52.90
5899;DHT22;2975;50.956;6.962;2023-07-22T10:51:12;25.10;52.70
5899;DHT22;2975;50.956;6.962;2023-07-22T10:53:47;25.10;52.00
5899;DHT22;2975;50.956;6.962;2023-07-22T10:56:23;25.20;52.10
5899;DHT22;2975;50.956;6.962;2023-07-22T11:01:32;25.50;50.90
5899;DHT22;2975;50.956;6.962;2023-07-22T11:09:34;25.50;50.60
5899;DHT22;2975;50.956;6.962;2023-07-22T11:12:18;25.60;50.80
5899;DHT22;2975;50.956;6.962;2023-07-22T11:15:03;26.40;49.30
5899;DHT22;2975;50.956;6.962;2023-07-22T11:17:30;26.50;48.40
5899;DHT22;2975;50.956;6.962;2023-07-22T11:19:57;26.70;48.60
5899;DHT22;2975;50.956;6.962;2023-07-22T11:22:23;26.50;48.40
5899;DHT22;2975;50.956;6.962;2023-07-22T11:24:48;26.30;48.80
5899;DHT22;2975;50.956;6.962;2023-07-22T11:27:14;26.10;49.10
5899;DHT22;2975;50.956;6.962;2023-07-22T11:29:40;25.90;48.40
5899;DHT22;2975;50.956;6.962;2023-07-22T11:32:06;25.80;49.70
5899;DHT22;2975;50.956;6.962;2023-07-22T11:34:33;25.70;49.60
5899;DHT22;2975;50.956;6.962;2023-07-22T11:36:58;25.60;49.50
5899;DHT22;2975;50.956;6.962;2023-07-22T11:39:25;25.50;50.00
5899;DHT22;2975;50.956;6.962;2023-07-22T11:41:52;25.40;49.70
5899;DHT22;2975;50.956;6.962;2023-07-22T11:44:22;25.30;49.80
5899;DHT22;2975;50.956;6.962;2023-07-22T11:49:27;25.20;49.50
5899;DHT22;2975;50.956;6.962;2023-07-22T11:52:00;25.00;49.00
5899;DHT22;2975;50.956;6.962;2023-07-22T11:54:27;24.90;49.70
5899;DHT22;2975;50.956;6.962;2023-07-22T11:56:53;24.70;50.30
5899;DHT22;2975;50.956;6.962;2023-07-22T11:59:33;24.30;51.20
5899;DHT22;2975;50.956;6.962;2023-07-22T12:02:00;24.20;51.70
5899;DHT22;2975;50.956;6.962;2023-07-22T12:04:26;24.30;52.40
5899;DHT22;2975;50.956;6.962;2023-07-22T12:06:52;24.70;52.40
5899;DHT22;2975;50.956;6.962;2023-07-22T12:09:17;25.10;52.00
5899;DHT22;2975;50.956;6.962;2023-07-22T12:11:43;25.20;50.80
5899;DHT22;2975;50.956;6.962;2023-07-22T12:14:09;25.10;51.10
5899;DHT22;2975;50.956;6.962;2023-07-22T12:16:37;25.10;51.10
5899;DHT22;2975;50.956;6.962;2023-07-22T12:19:03;25.20;50.60
5899;DHT22;2975;50.956;6.962;2023-07-22T12:21:29;25.20;50.90
5899;DHT22;2975;50.956;6.962;2023-07-22T12:23:55;25.30;50.00
5899;DHT22;2975;50.956;6.962;2023-07-22T12:26:20;25.30;50.40
5899;DHT22;2975;50.956;6.962;2023-07-22T12:28:46;25.60;49.80
5899;DHT22;2975;50.956;6.962;2023-07-22T12:31:12;25.90;49.00
5899;DHT22;2975;50.956;6.962;2023-07-22T12:33:37;25.90;48.70
5899;DHT22;2975;50.956;6.962;2023-07-22T12:36:03;25.80;49.00
5899;DHT22;2975;50.956;6.962;2023-07-22T12:38:29;25.90;48.20
5899;DHT22;2975;50.956;6.962;2023-07-22T12:40:54;26.20;48.30
5899;DHT22;2975;50.956;6.962;2023-07-22T12:43:20;26.20;46.70
5899;DHT22;2975;50.956;6.962;2023-07-22T12:45:46;26.00;46.70
5899;DHT22;2975;50.956;6.962;2023-07-22T12:48:11;26.00;46.70
5899;DHT22;2975;50.956;6.962;2023-07-22T12:50:37;26.10;46.30
5899;DHT22;2975;50.956;6.962;2023-07-22T12:53:03;26.20;46.20
5899;DHT22;2975;50.956;6.962;2023-07-22T12:55:29;26.00;46.60
5899;DHT22;2975;50.956;6.962;2023-07-22T12:57:54;25.80;47.20
5899;DHT22;2975;50.956;6.962;2023-07-22T13:00:20;25.50;47.00
5899;DHT22;2975;50.956;6.962;2023-07-22T13:02:46;25.40;47.30
5899;DHT22;2975;50.956;6.962;2023-07-22T13:05:12;25.60;47.20
5899;DHT22;2975;50.956;6.962;2023-07-22T13:07:38;25.60;47.40
5899;DHT22;2975;50.956;6.962;2023-07-22T13:10:04;25.60;47.00
5899;DHT22;2975;50.956;6.962;2023-07-22T13:12:34;25.60;46.70
5899;DHT22;2975;50.956;6.962;2023-07-22T13:15:00;25.60;46.70
5899;DHT22;2975;50.956;6.962;2023-07-22T13:17:25;25.60;46.20
5899;DHT22;2975;50.956;6.962;2023-07-22T13:19:51;25.60;46.70
5899;DHT22;2975;50.956;6.962;2023-07-22T13:22:17;25.50;46.60
5899;DHT22;2975;50.956;6.962;2023-07-22T13:24:42;25.30;47.00
5899;DHT22;2975;50.956;6.962;2023-07-22T13:27:08;25.40;47.20
5899;DHT22;2975;50.956;6.962;2023-07-22T13:29:34;25.30;46.80
5899;DHT22;2975;50.956;6.962;2023-07-22T13:31:59;25.30;47.20
5899;DHT22;2975;50.956;6.962;2023-07-22T13:34:25;25.10;47.70
5899;DHT22;2975;50.956;6.962;2023-07-22T13:36:51;25.20;48.50
5899;DHT22;2975;50.956;6.962;2023-07-22T13:39:16;25.40;48.50
5899;DHT22;2975;50.956;6.962;2023-07-22T13:41:42;25.60;48.20
5899;DHT22;2975;50.956;6.962;2023-07-22T13:44:07;26.00;47.50
5899;DHT22;2975;50.956;6.962;2023-07-22T13:46:33;26.10;46.80
5899;DHT22;2975;50.956;6.962;2023-07-22T13:48:59;26.10;47.00
5899;DHT22;2975;50.956;6.962;2023-07-22T13:51:24;26.10;47.00
5899;DHT22;2975;50.956;6.962;2023-07-22T13:53:50;26.00;46.50
5899;DHT22;2975;50.956;6.962;2023-07-22T13:56:17;26.10;47.30
5899;DHT22;2975;50.956;6.962;2023-07-22T13:58:43;26.20;46.50
5899;DHT22;2975;50.956;6.962;2023-07-22T14:01:09;26.10;46.80
5899;DHT22;2975;50.956;6.962;2023-07-22T14:03:34;26.30;46.90
5899;DHT22;2975;50.956;6.962;2023-07-22T14:06:00;26.60;46.90
5899;DHT22;2975;50.956;6.962;2023-07-22T14:08:25;26.60;46.20
5899;DHT22;2975;50.956;6.962;2023-07-22T14:10:51;26.40;46.30
5899;DHT22;2975;50.956;6.962;2023-07-22T14:13:16;26.20;46.60
5899;DHT22;2975;50.956;6.962;2023-07-22T14:15:42;26.20;47.20
5899;DHT22;2975;50.956;6.962;2023-07-22T14:18:08;26.30;47.20
5899;DHT22;2975;50.956;6.962;2023-07-22T14:20:33;26.40;47.10
5899;DHT22;2975;50.956;6.962;2023-07-22T14:22:59;26.50;46.50
5899;DHT22;2975;50.956;6.962;2023-07-22T14:25:24;26.40;46.60
5899;DHT22;2975;50.956;6.962;2023-07-22T14:27:50;26.20;46.60
5899;DHT22;2975;50.956;6.962;2023-07-22T14:30:16;26.20;47.00
5899;DHT22;2975;50.956;6.962;2023-07-22T14:32:41;26.20;47.20
5899;DHT22;2975;50.956;6.962;2023-07-22T14:35:08;26.30;46.70
5899;DHT22;2975;50.956;6.962;2023-07-22T14:37:35;26.40;46.60
5899;DHT22;2975;50.956;6.962;2023-07-22T14:40:01;26.40;46.60
5899;DHT22;2975;50.956;6.962;2023-07-22T14:42:27;26.30;47.00
5899;DHT22;2975;50.956;6.962;2023-07-22T14:44:52;26.30;47.30
5899;DHT22;2975;50.956;6.962;2023-07-22T14:47:18;26.30;47.30
5899;DHT22;2975;50.956;6.962;2023-07-22T14:49:44;26.30;47.40
5899;DHT22;2975;50.956;6.962;2023-07-22T14:52:10;26.10;47.90
5899;DHT22;2975;50.956;6.962;2023-07-22T14:54:35;26.00;47.90
5899;DHT22;2975;50.956;6.962;2023-07-22T14:57:01;26.00;48.10
5899;DHT22;2975;50.956;6.962;2023-07-22T14:59:26;26.10;47.20
5899;DHT22;2975;50.956;6.962;2023-07-22T15:01:52;26.20;47.30
5899;DHT22;2975;50.956;6.962;2023-07-22T15:04:18;26.10;47.00
5899;DHT22;2975;50.956;6.962;2023-07-22T15:06:44;26.00;46.70
5899;DHT22;2975;50.956;6.962;2023-07-22T15:09:10;25.80;47.70
5899;DHT22;2975;50.956;6.962;2023-07-22T15:11:36;25.60;47.70
5899;DHT22;2975;50.956;6.962;2023-07-22T15:14:05;25.50;48.00
5899;DHT22;2975;50.956;6.962;2023-07-22T15:16:31;25.70;48.50
5899;DHT22;2975;50.956;6.962;2023-07-22T15:18:57;25.90;48.40
5899;DHT22;2975;50.956;6.962;2023-07-22T15:21:22;26.20;47.70
5899;DHT22;2975;50.956;6.962;2023-07-22T15:23:48;26.20;46.90
5899;DHT22;2975;50.956;6.962;2023-07-22T15:26:14;26.20;47.50
5899;DHT22;2975;50.956;6.962;2023-07-22T15:28:39;26.00;47.20
5899;DHT22;2975;50.956;6.962;2023-07-22T15:31:06;25.80;47.20
5899;DHT22;2975;50.956;6.962;2023-07-22T15:33:33;25.60;47.90
5899;DHT22;2975;50.956;6.962;2023-07-22T15:35:59;25.60;48.80
5899;DHT22;2975;50.956;6.962;2023-07-22T15:38:25;25.70;48.90
5899;DHT22;2975;50.956;6.962;2023-07-22T15:40:52;25.90;48.60
5899;DHT22;2975;50.956;6.962;2023-07-22T15:43:18;25.90;48.60
5899;DHT22;2975;50.956;6.962;2023-07-22T15:45:43;25.80;48.90
5899;DHT22;2975;50.956;6.962;2023-07-22T15:48:09;25.90;49.30
5899;DHT22;2975;50.956;6.962;2023-07-22T15:50:35;26.00;49.20
5899;DHT22;2975;50.956;6.962;2023-07-22T15:53:00;26.00;49.40
5899;DHT22;2975;50.956;6.962;2023-07-22T15:55:26;25.90;49.50
5899;DHT22;2975;50.956;6.962;2023-07-22T15:57:51;25.80;50.80
5899;DHT22;2975;50.956;6.962;2023-07-22T16:00:17;25.60;50.50
5899;DHT22;2975;50.956;6.962;2023-07-22T16:02:43;25.50;51.00
5899;DHT22;2975;50.956;6.962;2023-07-22T16:05:09;25.40;51.40
5899;DHT22;2975;50.956;6.962;2023-07-22T16:07:36;25.20;51.50
5899;DHT22;2975;50.956;6.962;2023-07-22T16:10:03;25.10;51.70